sensor_id;sensor_type;location;lat;lon;timestamp;pressure;altitude;pressure_sealevel;temperature;humidity
21781;BME280;52576;53.614;9.894;2023-01-16T00:01:17;99434.81;;;4.42;78.65
21781;BME280;52576;53.614;9.894;2023-01-16T00:03:20;99435.66;;;4.43;78.64
21781;BME280;52576;53.614;9.894;2023-01-16T00:05:24;99438.16;;;4.44;78.78
21781;BME280;52576;53.614;9.894;2023-01-16T00:07:27;99432.03;;;4.46;78.62
21781;BME280;52576;53.614;9.894;2023-01-16T00:09:30;99434.53;;;4.47;78.61
21781;BME280;52576;53.614;9.894;2023-01-16T00:11:34;99425.00;;;4.48;78.83
21781;BME280;52576;53.614;9.894;2023-01-16T00:13:38;99434.44;;;4.49;78.89
21781;BME280;52576;53.614;9.894;2023-01-16T00:15:44;99424.06;;;4.49;78.96
21781;BME280;52576;53.614;9.894;2023-01-16T00:17:47;99423.13;;;4.50;79.10
21781;BME280;52576;53.614;9.894;2023-01-16T00:19:51;99417.94;;;4.50;78.90
21781;BME280;52576;53.614;9.894;2023-01-16T00:21:54;99424.81;;;4.51;79.11
21781;BME280;52576;53.614;9.894;2023-01-16T00:23:58;99422.94;;;4.53;79.34
21781;BME280;52576;53.614;9.894;2023-01-16T00:26:04;99419.41;;;4.54;79.19
21781;BME280;52576;53.614;9.894;2023-01-16T00:28:09;99410.72;;;4.55;79.26
21781;BME280;52576;53.614;9.894;2023-01-16T00:30:13;99414.03;;;4.57;79.15
21781;BME280;52576;53.614;9.894;2023-01-16T00:32:16;99405.34;;;4.58;79.28
21781;BME280;52576;53.614;9.894;2023-01-16T00:34:19;99407.00;;;4.59;79.26
21781;BME280;52576;53.614;9.894;2023-01-16T00:36:22;99396.63;;;4.59;79.35
21781;BME280;52576;53.614;9.894;2023-01-16T00:38:25;99397.34;;;4.61;79.38
21781;BME280;52576;53.614;9.894;2023-01-16T00:40:29;99399.94;;;4.61;79.31
21781;BME280;52576;53.614;9.894;2023-01-16T00:42:50;99392.06;;;4.62;79.46
21781;BME280;52576;53.614;9.894;2023-01-16T00:44:55;99388.53;;;4.63;79.51
21781;BME280;52576;53.614;9.894;2023-01-16T00:46:58;99389.38;;;4.64;79.43
21781;BME280;52576;53.614;9.894;2023-01-16T00:49:01;99389.38;;;4.64;79.39
21781;BME280;52576;53.614;9.894;2023-01-16T00:51:04;99385.84;;;4.65;79.38
21781;BME280;52576;53.614;9.894;2023-01-16T00:53:07;99384.19;;;4.64;79.46
21781;BME280;52576;53.614;9.894;2023-01-16T00:55:11;99385.84;;;4.65;79.40
21781;BME280;52576;53.614;9.894;2023-01-16T00:57:14;99386.69;;;4.65;79.48
21781;BME280;52576;53.614;9.894;2023-01-16T00:59:17;99388.44;;;4.65;79.33
21781;BME280;52576;53.614;9.894;2023-01-16T01:01:22;99385.84;;;4.65;79.43
21781;BME280;52576;53.614;9.894;2023-01-16T01:03:26;99380.66;;;4.65;79.34
21781;BME280;52576;53.614;9.894;2023-01-16T01:05:30;99384.00;;;4.67;79.48
21781;BME280;52576;53.614;9.894;2023-01-16T01:07:33;99386.59;;;4.67;79.32
21781;BME280;52576;53.614;9.894;2023-01-16T01:09:36;99384.00;;;4.67;79.42
21781;BME280;52576;53.614;9.894;2023-01-16T01:11:39;99396.00;;;4.68;79.29
21781;BME280;52576;53.614;9.894;2023-01-16T01:13:43;99385.63;;;4.68;79.13
21781;BME280;52576;53.614;9.894;2023-01-16T01:15:46;99379.63;;;4.67;79.00
21781;BME280;52576;53.614;9.894;2023-01-16T01:17:50;99376.06;;;4.68;78.65
21781;BME280;52576;53.614;9.894;2023-01-16T01:19:53;99380.44;;;4.68;78.35
21781;BME280;52576;53.614;9.894;2023-01-16T01:21:56;99373.59;;;4.67;77.89
21781;BME280;52576;53.614;9.894;2023-01-16T01:24:00;99371.00;;;4.67;77.45
21781;BME280;52576;53.614;9.894;2023-01-16T01:26:07;99367.59;;;4.66;77.57
21781;BME280;52576;53.614;9.894;2023-01-16T01:28:11;99371.94;;;4.66;77.17
21781;BME280;52576;53.614;9.894;2023-01-16T01:30:14;99371.94;;;4.66;76.78
21781;BME280;52576;53.614;9.894;2023-01-16T01:32:17;99369.25;;;4.67;76.57
21781;BME280;52576;53.614;9.894;2023-01-16T01:34:21;99365.81;;;4.67;76.82
21781;BME280;52576;53.614;9.894;2023-01-16T01:36:25;99360.72;;;4.65;76.45
21781;BME280;52576;53.614;9.894;2023-01-16T01:38:28;99354.81;;;4.63;76.38
21781;BME280;52576;53.614;9.894;2023-01-16T01:40:32;99361.94;;;4.60;76.29
21781;BME280;52576;53.614;9.894;2023-01-16T01:42:37;99352.59;;;4.57;76.17
21781;BME280;52576;53.614;9.894;2023-01-16T01:44:50;99358.81;;;4.55;76.26
21781;BME280;52576;53.614;9.894;2023-01-16T01:46:54;99345.94;;;4.53;76.39
21781;BME280;52576;53.614;9.894;2023-01-16T01:49:00;99351.97;;;4.54;76.56
21781;BME280;52576;53.614;9.894;2023-01-16T01:51:11;99350.19;;;4.54;76.48
21781;BME280;52576;53.614;9.894;2023-01-16T01:53:18;99347.59;;;4.54;76.74
21781;BME280;52576;53.614;9.894;2023-01-16T01:55:22;99342.50;;;4.53;76.63
21781;BME280;52576;53.614;9.894;2023-01-16T01:57:27;99339.91;;;4.53;76.62
21781;BME280;52576;53.614;9.894;2023-01-16T01:59:33;99335.66;;;4.52;76.95
21781;BME280;52576;53.614;9.894;2023-01-16T02:01:39;99331.41;;;4.51;76.89
21781;BME280;52576;53.614;9.894;2023-01-16T02:03:46;99331.41;;;4.51;76.81
21781;BME280;52576;53.614;9.894;2023-01-16T02:05:53;99319.34;;;4.50;77.06
21781;BME280;52576;53.614;9.894;2023-01-16T02:08:00;99317.69;;;4.49;77.14
21781;BME280;52576;53.614;9.894;2023-01-16T02:10:11;99314.25;;;4.48;77.32
21781;BME280;52576;53.614;9.894;2023-01-16T02:12:16;99311.66;;;4.48;77.36
21781;BME280;52576;53.614;9.894;2023-01-16T02:14:20;99316.03;;;4.48;77.22
21781;BME280;52576;53.614;9.894;2023-01-16T02:16:24;99309.19;;;4.47;77.49
21781;BME280;52576;53.614;9.894;2023-01-16T02:18:44;99306.69;;;4.45;77.40
21781;BME280;52576;53.614;9.894;2023-01-16T02:21:17;99305.00;;;4.44;77.71
21781;BME280;52576;53.614;9.894;2023-01-16T02:23:54;99304.19;;;4.43;77.71
21781;BME280;52576;53.614;9.894;2023-01-16T02:28:57;99292.13;;;4.42;77.77
21781;BME280;52576;53.614;9.894;2023-01-16T02:31:17;99286.94;;;4.42;77.73
21781;BME280;52576;53.614;9.894;2023-01-16T02:33:28;99288.00;;;4.40;78.06
21781;BME280;52576;53.614;9.894;2023-01-16T02:35:55;99297.56;;;4.39;77.86
21781;BME280;52576;53.614;9.894;2023-01-16T02:38:05;99288.09;;;4.38;78.08
21781;BME280;52576;53.614;9.894;2023-01-16T02:40:25;99295.88;;;4.38;78.02
21781;BME280;52576;53.614;9.894;2023-01-16T02:42:38;99289.03;;;4.37;78.11
21781;BME280;52576;53.614;9.894;2023-01-16T02:44:49;99277.94;;;4.35;78.08
21781;BME280;52576;53.614;9.894;2023-01-16T02:47:05;99279.88;;;4.32;78.23
21781;BME280;52576;53.614;9.894;2023-01-16T02:49:17;99280.19;;;4.27;78.25
21781;BME280;52576;53.614;9.894;2023-01-16T02:51:28;99274.44;;;4.22;78.27
21781;BME280;52576;53.614;9.894;2023-01-16T02:53:41;99266.13;;;4.17;78.49
21781;BME280;52576;53.614;9.894;2023-01-16T02:55:47;99263.03;;;4.12;78.65
21781;BME280;52576;53.614;9.894;2023-01-16T02:57:56;99267.56;;;4.08;78.45
21781;BME280;52576;53.614;9.894;2023-01-16T03:00:03;99263.59;;;4.03;78.80
21781;BME280;52576;53.614;9.894;2023-01-16T03:02:09;99261.31;;;3.98;78.79
21781;BME280;52576;53.614;9.894;2023-01-16T03:04:38;99259.81;;;3.94;79.02
21781;BME280;52576;53.614;9.894;2023-01-16T03:06:43;99260.84;;;3.92;79.07
21781;BME280;52576;53.614;9.894;2023-01-16T03:08:53;99254.00;;;3.91;79.24
21781;BME280;52576;53.614;9.894;2023-01-16T03:11:17;99254.00;;;3.91;79.25
21781;BME280;52576;53.614;9.894;2023-01-16T03:13:35;99244.59;;;3.90;79.55
21781;BME280;52576;53.614;9.894;2023-01-16T03:15:46;99241.16;;;3.89;79.48
21781;BME280;52576;53.614;9.894;2023-01-16T03:18:02;99239.50;;;3.88;79.58
21781;BME280;52576;53.614;9.894;2023-01-16T03:20:13;99231.81;;;3.87;79.70
21781;BME280;52576;53.614;9.894;2023-01-16T03:22:24;99231.81;;;3.87;79.79
21781;BME280;52576;53.614;9.894;2023-01-16T03:24:36;99229.25;;;3.87;79.67
21781;BME280;52576;53.614;9.894;2023-01-16T03:26:46;99229.25;;;3.87;79.84
21781;BME280;52576;53.614;9.894;2023-01-16T03:28:57;99220.63;;;3.86;79.71
21781;BME280;52576;53.614;9.894;2023-01-16T03:31:10;99211.09;;;3.87;79.74
21781;BME280;52576;53.614;9.894;2023-01-16T03:33:22;99215.34;;;3.88;79.93
21781;BME280;52576;53.614;9.894;2023-01-16T03:35:33;99210.16;;;3.88;79.81
21781;BME280;52576;53.614;9.894;2023-01-16T03:37:40;99205.72;;;3.90;80.04
21781;BME280;52576;53.614;9.894;2023-01-16T03:39:47;99197.09;;;3.89;79.84
21781;BME280;52576;53.614;9.894;2023-01-16T03:41:53;99192.75;;;3.90;79.85
21781;BME280;52576;53.614;9.894;2023-01-16T03:44:03;99178.13;;;3.89;79.80
21781;BME280;52576;53.614;9.894;2023-01-16T03:46:11;99190.16;;;3.90;79.86
21781;BME280;52576;53.614;9.894;2023-01-16T03:48:20;99178.97;;;3.89;80.01
21781;BME280;52576;53.614;9.894;2023-01-16T03:50:26;99177.91;;;3.92;79.79
21781;BME280;52576;53.614;9.894;2023-01-16T03:52:33;99180.50;;;3.92;79.73
21781;BME280;52576;53.614;9.894;2023-01-16T03:54:42;99176.25;;;3.91;79.97
21781;BME280;52576;53.614;9.894;2023-01-16T03:56:49;99179.78;;;3.90;79.89
21781;BME280;52576;53.614;9.894;2023-01-16T03:58:54;99177.22;;;3.90;79.91
21781;BME280;52576;53.614;9.894;2023-01-16T04:01:02;99170.22;;;3.90;79.85
21781;BME280;52576;53.614;9.894;2023-01-16T04:03:12;99165.19;;;3.89;79.79
21781;BME280;52576;53.614;9.894;2023-01-16T04:05:23;99167.75;;;3.89;79.85
21781;BME280;52576;53.614;9.894;2023-01-16T04:07:31;99160.00;;;3.89;79.71
21781;BME280;52576;53.614;9.894;2023-01-16T04:09:41;99167.63;;;3.90;79.95
21781;BME280;52576;53.614;9.894;2023-01-16T04:11:46;99163.28;;;3.91;79.90
21781;BME280;52576;53.614;9.894;2023-01-16T04:13:55;99160.50;;;3.94;79.82
21781;BME280;52576;53.614;9.894;2023-01-16T04:16:01;99160.31;;;3.97;79.90
21781;BME280;52576;53.614;9.894;2023-01-16T04:18:06;99158.44;;;3.99;79.82
21781;BME280;52576;53.614;9.894;2023-01-16T04:20:10;99155.66;;;4.02;79.79
21781;BME280;52576;53.614;9.894;2023-01-16T04:22:20;99150.28;;;4.05;79.88
21781;BME280;52576;53.614;9.894;2023-01-16T04:24:24;99147.47;;;4.08;79.63
21781;BME280;52576;53.614;9.894;2023-01-16T04:26:27;99148.94;;;4.12;79.36
21781;BME280;52576;53.614;9.894;2023-01-16T04:28:30;99131.53;;;4.14;79.47
21781;BME280;52576;53.614;9.894;2023-01-16T04:30:33;99135.66;;;4.17;79.15
21781;BME280;52576;53.614;9.894;2023-01-16T04:32:37;99137.22;;;4.19;79.14
21781;BME280;52576;53.614;9.894;2023-01-16T04:34:40;99130.06;;;4.23;79.15
21781;BME280;52576;53.614;9.894;2023-01-16T04:36:43;99129.03;;;4.25;79.03
21781;BME280;52576;53.614;9.894;2023-01-16T04:38:48;99122.91;;;4.26;78.82
21781;BME280;52576;53.614;9.894;2023-01-16T04:40:52;99118.44;;;4.28;78.83
21781;BME280;52576;53.614;9.894;2023-01-16T04:42:56;99121.78;;;4.30;78.71
21781;BME280;52576;53.614;9.894;2023-01-16T04:44:59;99113.06;;;4.31;78.59
21781;BME280;52576;53.614;9.894;2023-01-16T04:47:02;99114.72;;;4.32;78.40
21781;BME280;52576;53.614;9.894;2023-01-16T04:49:05;99108.59;;;4.33;78.42
21781;BME280;52576;53.614;9.894;2023-01-16T04:51:08;99105.06;;;4.34;78.35
21781;BME280;52576;53.614;9.894;2023-01-16T04:53:12;99098.97;;;4.35;78.27
21781;BME280;52576;53.614;9.894;2023-01-16T04:55:16;99100.63;;;4.36;78.17
21781;BME280;52576;53.614;9.894;2023-01-16T04:57:19;99097.09;;;4.37;78.11
21781;BME280;52576;53.614;9.894;2023-01-16T04:59:22;99098.75;;;4.38;77.96
21781;BME280;52576;53.614;9.894;2023-01-16T05:01:25;99093.56;;;4.38;77.84
21781;BME280;52576;53.614;9.894;2023-01-16T05:03:29;99103.00;;;4.39;77.75
21781;BME280;52576;53.614;9.894;2023-01-16T05:05:32;99100.41;;;4.39;77.58
21781;BME280;52576;53.614;9.894;2023-01-16T05:07:35;99096.88;;;4.40;77.65
21781;BME280;52576;53.614;9.894;2023-01-16T05:09:38;99095.81;;;4.43;77.53
21781;BME280;52576;53.614;9.894;2023-01-16T05:11:43;99089.81;;;4.42;77.32
21781;BME280;52576;53.614;9.894;2023-01-16T05:13:46;99087.94;;;4.44;77.26
21781;BME280;52576;53.614;9.894;2023-01-16T05:15:49;99082.75;;;4.44;77.30
21781;BME280;52576;53.614;9.894;2023-01-16T05:17:52;99086.06;;;4.47;77.22
21781;BME280;52576;53.614;9.894;2023-01-16T05:19:56;99079.94;;;4.48;77.28
21781;BME280;52576;53.614;9.894;2023-01-16T05:21:59;99076.41;;;4.49;77.06
21781;BME280;52576;53.614;9.894;2023-01-16T05:24:02;99079.94;;;4.48;77.09
21781;BME280;52576;53.614;9.894;2023-01-16T05:26:06;99074.75;;;4.48;76.79
21781;BME280;52576;53.614;9.894;2023-01-16T05:28:11;99075.59;;;4.48;76.74
21781;BME280;52576;53.614;9.894;2023-01-16T05:30:14;99063.44;;;4.49;76.76
21781;BME280;52576;53.614;9.894;2023-01-16T05:32:18;99057.44;;;4.48;76.83
21781;BME280;52576;53.614;9.894;2023-01-16T05:34:21;99056.59;;;4.48;76.63
21781;BME280;52576;53.614;9.894;2023-01-16T05:36:24;99060.13;;;4.47;76.48
21781;BME280;52576;53.614;9.894;2023-01-16T05:38:27;99051.50;;;4.46;76.70
21781;BME280;52576;53.614;9.894;2023-01-16T05:40:30;99053.28;;;4.46;76.47
21781;BME280;52576;53.614;9.894;2023-01-16T05:42:33;99046.44;;;4.44;76.55
21781;BME280;52576;53.614;9.894;2023-01-16T05:44:38;99048.09;;;4.46;76.54
21781;BME280;52576;53.614;9.894;2023-01-16T05:46:41;99056.81;;;4.44;76.53
21781;BME280;52576;53.614;9.894;2023-01-16T05:48:44;99049.97;;;4.43;76.42
21781;BME280;52576;53.614;9.894;2023-01-16T05:50:47;99046.44;;;4.44;76.50
21781;BME280;52576;53.614;9.894;2023-01-16T05:52:50;99042.06;;;4.45;76.31
21781;BME280;52576;53.614;9.894;2023-01-16T05:54:53;99041.25;;;4.44;76.38
21781;BME280;52576;53.614;9.894;2023-01-16T05:56:57;99042.06;;;4.45;76.29
21781;BME280;52576;53.614;9.894;2023-01-16T05:59:00;99029.22;;;4.43;76.24
21781;BME280;52576;53.614;9.894;2023-01-16T06:01:05;99034.41;;;4.43;76.37
21781;BME280;52576;53.614;9.894;2023-01-16T06:03:08;99027.53;;;4.42;76.08
21781;BME280;52576;53.614;9.894;2023-01-16T06:05:11;99027.53;;;4.42;75.98
21781;BME280;52576;53.614;9.894;2023-01-16T06:07:15;99025.78;;;4.43;76.16
21781;BME280;52576;53.614;9.894;2023-01-16T06:09:18;99020.72;;;4.41;76.33
21781;BME280;52576;53.614;9.894;2023-01-16T06:11:21;99019.06;;;4.40;76.32
21781;BME280;52576;53.614;9.894;2023-01-16T06:13:24;99014.09;;;4.37;76.14
21781;BME280;52576;53.614;9.894;2023-01-16T06:15:27;99014.19;;;4.36;76.23
21781;BME280;52576;53.614;9.894;2023-01-16T06:17:32;99010.97;;;4.32;76.45
21781;BME280;52576;53.614;9.894;2023-01-16T06:19:35;99011.19;;;4.29;76.17
21781;BME280;52576;53.614;9.894;2023-01-16T06:21:38;99007.13;;;4.25;76.30
21781;BME280;52576;53.614;9.894;2023-01-16T06:23:41;99007.25;;;4.24;76.48
21781;BME280;52576;53.614;9.894;2023-01-16T06:25:48;99003.09;;;4.21;76.49
21781;BME280;52576;53.614;9.894;2023-01-16T06:27:51;99010.03;;;4.21;76.53
21781;BME280;52576;53.614;9.894;2023-01-16T06:29:56;99001.44;;;4.20;76.55
21781;BME280;52576;53.614;9.894;2023-01-16T06:31:59;99000.59;;;4.20;76.70
21781;BME280;52576;53.614;9.894;2023-01-16T06:34:04;99001.44;;;4.20;76.74
21781;BME280;52576;53.614;9.894;2023-01-16T06:36:07;98997.91;;;4.21;76.65
21781;BME280;52576;53.614;9.894;2023-01-16T06:38:10;98994.38;;;4.22;76.88
21781;BME280;52576;53.614;9.894;2023-01-16T06:40:13;98991.69;;;4.24;76.95
21781;BME280;52576;53.614;9.894;2023-01-16T06:42:16;98989.09;;;4.24;76.69
21781;BME280;52576;53.614;9.894;2023-01-16T06:44:19;98991.69;;;4.24;76.72
21781;BME280;52576;53.614;9.894;2023-01-16T06:46:22;98987.31;;;4.24;76.74
21781;BME280;52576;53.614;9.894;2023-01-16T06:48:25;98989.00;;;4.25;76.65
21781;BME280;52576;53.614;9.894;2023-01-16T06:50:30;98981.22;;;4.25;76.72
21781;BME280;52576;53.614;9.894;2023-01-16T06:52:33;98978.63;;;4.25;76.60
21781;BME280;52576;53.614;9.894;2023-01-16T06:54:36;98985.47;;;4.26;76.55
21781;BME280;52576;53.614;9.894;2023-01-16T06:56:39;98974.16;;;4.27;76.70
21781;BME280;52576;53.614;9.894;2023-01-16T06:58:43;98972.50;;;4.26;76.77
21781;BME280;52576;53.614;9.894;2023-01-16T07:00:47;98966.38;;;4.27;76.69
21781;BME280;52576;53.614;9.894;2023-01-16T07:02:54;98960.34;;;4.27;76.67
21781;BME280;52576;53.614;9.894;2023-01-16T07:04:58;98963.78;;;4.27;76.57
21781;BME280;52576;53.614;9.894;2023-01-16T07:07:02;98962.84;;;4.28;76.55
21781;BME280;52576;53.614;9.894;2023-01-16T07:09:05;98949.88;;;4.28;76.68
21781;BME280;52576;53.614;9.894;2023-01-16T07:11:08;98952.47;;;4.28;76.44
21781;BME280;52576;53.614;9.894;2023-01-16T07:13:11;98954.13;;;4.29;76.16
21781;BME280;52576;53.614;9.894;2023-01-16T07:15:15;98951.53;;;4.29;76.26
21781;BME280;52576;53.614;9.894;2023-01-16T07:17:47;98947.28;;;4.28;76.39
21781;BME280;52576;53.614;9.894;2023-01-16T07:20:11;98949.06;;;4.28;76.05
21781;BME280;52576;53.614;9.894;2023-01-16T07:22:33;98943.97;;;4.26;76.33
21781;BME280;52576;53.614;9.894;2023-01-16T07:24:41;98944.06;;;4.25;76.22
21781;BME280;52576;53.614;9.894;2023-01-16T07:26:46;98944.91;;;4.25;76.07
21781;BME280;52576;53.614;9.894;2023-01-16T07:28:51;98943.34;;;4.23;76.00
21781;BME280;52576;53.614;9.894;2023-01-16T07:30:56;98937.34;;;4.22;76.08
21781;BME280;52576;53.614;9.894;2023-01-16T07:33:00;98930.50;;;4.21;76.11
21781;BME280;52576;53.614;9.894;2023-01-16T07:35:03;98934.94;;;4.19;76.08
21781;BME280;52576;53.614;9.894;2023-01-16T07:37:07;98931.53;;;4.19;76.18
21781;BME280;52576;53.614;9.894;2023-01-16T07:39:13;98932.56;;;4.16;76.07
21781;BME280;52576;53.614;9.894;2023-01-16T07:41:16;98939.66;;;4.14;76.08
21781;BME280;52576;53.614;9.894;2023-01-16T07:43:20;98932.09;;;4.11;76.17
21781;BME280;52576;53.614;9.894;2023-01-16T07:45:23;98937.28;;;4.11;76.39
21781;BME280;52576;53.614;9.894;2023-01-16T07:47:26;98931.25;;;4.11;76.35
21781;BME280;52576;53.614;9.894;2023-01-16T07:49:30;98931.38;;;4.09;76.47
21781;BME280;52576;53.614;9.894;2023-01-16T07:51:33;98928.03;;;4.07;76.19
21781;BME280;52576;53.614;9.894;2023-01-16T07:53:36;98923.78;;;4.06;76.48
21781;BME280;52576;53.614;9.894;2023-01-16T07:55:40;98919.53;;;4.05;76.55
21781;BME280;52576;53.614;9.894;2023-01-16T07:57:43;98920.47;;;4.04;76.41
21781;BME280;52576;53.614;9.894;2023-01-16T07:59:46;98909.16;;;4.05;76.45
21781;BME280;52576;53.614;9.894;2023-01-16T08:01:49;98907.50;;;4.04;76.34
21781;BME280;52576;53.614;9.894;2023-01-16T08:03:52;98902.53;;;4.01;76.41
21781;BME280;52576;53.614;9.894;2023-01-16T08:05:56;98888.84;;;3.99;76.53
21781;BME280;52576;53.614;9.894;2023-01-16T08:08:00;98890.72;;;3.97;76.49
21781;BME280;52576;53.614;9.894;2023-01-16T08:10:04;98887.41;;;3.95;76.68
21781;BME280;52576;53.614;9.894;2023-01-16T08:12:08;98895.19;;;3.95;76.67
21781;BME280;52576;53.614;9.894;2023-01-16T08:14:11;98892.59;;;3.95;76.58
21781;BME280;52576;53.614;9.894;2023-01-16T08:16:15;98889.16;;;3.94;76.66
21781;BME280;52576;53.614;9.894;2023-01-16T08:18:18;98888.25;;;3.95;76.68
21781;BME280;52576;53.614;9.894;2023-01-16T08:20:22;98890.81;;;3.95;76.51
21781;BME280;52576;53.614;9.894;2023-01-16T08:22:26;98895.91;;;3.97;76.65
21781;BME280;52576;53.614;9.894;2023-01-16T08:24:29;98890.50;;;4.00;76.95
21781;BME280;52576;53.614;9.894;2023-01-16T08:26:33;98890.09;;;4.06;76.76
21781;BME280;52576;53.614;9.894;2023-01-16T08:28:37;98889.66;;;4.12;76.94
21781;BME280;52576;53.614;9.894;2023-01-16T08:30:40;98884.03;;;4.18;76.94
21781;BME280;52576;53.614;9.894;2023-01-16T08:32:43;98880.06;;;4.25;77.06
21781;BME280;52576;53.614;9.894;2023-01-16T08:34:46;98881.09;;;4.35;77.04
21781;BME280;52576;53.614;9.894;2023-01-16T08:36:49;98878.75;;;4.43;76.73
21781;BME280;52576;53.614;9.894;2023-01-16T08:38:52;98868.06;;;4.48;76.68
21781;BME280;52576;53.614;9.894;2023-01-16T08:40:55;98864.41;;;4.51;76.24
21781;BME280;52576;53.614;9.894;2023-01-16T08:42:59;98854.16;;;4.49;76.21
21781;BME280;52576;53.614;9.894;2023-01-16T08:45:21;98857.78;;;4.47;75.98
21781;BME280;52576;53.614;9.894;2023-01-16T08:47:42;98857.06;;;4.44;76.09
21781;BME280;52576;53.614;9.894;2023-01-16T08:50:03;98848.56;;;4.42;76.00
21781;BME280;52576;53.614;9.894;2023-01-16T08:52:24;98850.56;;;4.39;75.73
21781;BME280;52576;53.614;9.894;2023-01-16T08:54:28;98845.59;;;4.36;75.84
21781;BME280;52576;53.614;9.894;2023-01-16T08:56:32;98845.00;;;4.32;75.87
21781;BME280;52576;53.614;9.894;2023-01-16T08:58:35;98846.03;;;4.30;75.84
21781;BME280;52576;53.614;9.894;2023-01-16T09:00:39;98840.03;;;4.29;76.01
21781;BME280;52576;53.614;9.894;2023-01-16T09:02:42;98835.78;;;4.28;76.00
21781;BME280;52576;53.614;9.894;2023-01-16T09:04:47;98839.19;;;4.29;75.92
21781;BME280;52576;53.614;9.894;2023-01-16T09:06:50;98828.00;;;4.28;75.95
21781;BME280;52576;53.614;9.894;2023-01-16T09:08:55;98821.16;;;4.27;75.96
21781;BME280;52576;53.614;9.894;2023-01-16T09:10:58;98821.25;;;4.26;75.98
21781;BME280;52576;53.614;9.894;2023-01-16T09:13:27;98816.19;;;4.24;76.10
21781;BME280;52576;53.614;9.894;2023-01-16T09:15:49;98809.34;;;4.23;75.95
21781;BME280;52576;53.614;9.894;2023-01-16T09:17:52;98806.03;;;4.21;76.08
21781;BME280;52576;53.614;9.894;2023-01-16T09:19:56;98800.13;;;4.19;76.03
21781;BME280;52576;53.614;9.894;2023-01-16T09:21:59;98790.69;;;4.18;75.97
21781;BME280;52576;53.614;9.894;2023-01-16T09:24:02;98789.03;;;4.17;75.90
21781;BME280;52576;53.614;9.894;2023-01-16T09:26:05;98796.13;;;4.15;76.10
21781;BME280;52576;53.614;9.894;2023-01-16T09:28:10;98789.28;;;4.14;76.21
21781;BME280;52576;53.614;9.894;2023-01-16T09:30:13;98786.69;;;4.14;76.21
21781;BME280;52576;53.614;9.894;2023-01-16T09:32:18;98785.03;;;4.13;76.32
21781;BME280;52576;53.614;9.894;2023-01-16T09:34:22;98783.25;;;4.14;76.44
21781;BME280;52576;53.614;9.894;2023-01-16T09:36:25;98782.44;;;4.13;76.18
21781;BME280;52576;53.614;9.894;2023-01-16T09:38:28;98773.72;;;4.14;76.33
21781;BME280;52576;53.614;9.894;2023-01-16T09:40:32;98765.00;;;4.15;76.36
21781;BME280;52576;53.614;9.894;2023-01-16T09:42:45;98761.44;;;4.16;76.28
21781;BME280;52576;53.614;9.894;2023-01-16T09:45:11;98763.09;;;4.17;76.38
21781;BME280;52576;53.614;9.894;2023-01-16T09:47:20;98752.72;;;4.17;76.22
21781;BME280;52576;53.614;9.894;2023-01-16T09:49:29;98753.56;;;4.18;76.34
21781;BME280;52576;53.614;9.894;2023-01-16T09:51:36;98750.03;;;4.19;76.17
21781;BME280;52576;53.614;9.894;2023-01-16T09:53:44;98751.56;;;4.21;76.09
21781;BME280;52576;53.614;9.894;2023-01-16T09:56:08;98738.38;;;4.24;76.10
21781;BME280;52576;53.614;9.894;2023-01-16T09:58:31;98745.72;;;4.30;76.13
21781;BME280;52576;53.614;9.894;2023-01-16T10:00:41;98736.78;;;4.34;75.97
21781;BME280;52576;53.614;9.894;2023-01-16T10:02:45;98741.03;;;4.35;76.00
21781;BME280;52576;53.614;9.894;2023-01-16T10:04:50;98740.81;;;4.38;76.00
21781;BME280;52576;53.614;9.894;2023-01-16T10:07:18;98731.84;;;4.42;75.99
21781;BME280;52576;53.614;9.894;2023-01-16T10:09:32;98722.91;;;4.47;76.06
21781;BME280;52576;53.614;9.894;2023-01-16T10:11:40;98727.75;;;4.51;75.88
21781;BME280;52576;53.614;9.894;2023-01-16T10:14:10;98722.22;;;4.56;75.85
21781;BME280;52576;53.614;9.894;2023-01-16T10:16:23;98722.00;;;4.59;75.86
21781;BME280;52576;53.614;9.894;2023-01-16T10:18:32;98716.59;;;4.62;75.72
21781;BME280;52576;53.614;9.894;2023-01-16T10:21:01;98714.47;;;4.67;75.52
21781;BME280;52576;53.614;9.894;2023-01-16T10:23:18;98701.25;;;4.70;75.37
21781;BME280;52576;53.614;9.894;2023-01-16T10:25:28;98705.84;;;4.77;75.43
21781;BME280;52576;53.614;9.894;2023-01-16T10:27:40;98695.03;;;4.84;75.00
21781;BME280;52576;53.614;9.894;2023-01-16T10:29:51;98695.38;;;4.90;75.04
21781;BME280;52576;53.614;9.894;2023-01-16T10:31:58;98685.81;;;4.91;74.88
21781;BME280;52576;53.614;9.894;2023-01-16T10:34:10;98679.56;;;4.93;74.80
21781;BME280;52576;53.614;9.894;2023-01-16T10:36:18;98674.13;;;4.96;74.62
21781;BME280;52576;53.614;9.894;2023-01-16T10:38:26;98670.59;;;4.97;74.60
21781;BME280;52576;53.614;9.894;2023-01-16T10:40:35;98662.69;;;4.99;74.37
21781;BME280;52576;53.614;9.894;2023-01-16T10:42:41;98653.13;;;4.99;74.40
21781;BME280;52576;53.614;9.894;2023-01-16T10:45:12;98665.16;;;5.00;74.25
21781;BME280;52576;53.614;9.894;2023-01-16T10:47:34;98665.63;;;5.05;74.17
21781;BME280;52576;53.614;9.894;2023-01-16T10:49:56;98660.22;;;5.08;74.03
21781;BME280;52576;53.614;9.894;2023-01-16T10:52:01;98649.59;;;5.11;74.06
21781;BME280;52576;53.614;9.894;2023-01-16T10:54:07;98659.03;;;5.13;73.95
21781;BME280;52576;53.614;9.894;2023-01-16T10:56:10;98648.41;;;5.16;74.00
21781;BME280;52576;53.614;9.894;2023-01-16T10:58:22;98632.31;;;5.22;73.95
21781;BME280;52576;53.614;9.894;2023-01-16T11:00:31;98631.13;;;5.26;73.85
21781;BME280;52576;53.614;9.894;2023-01-16T11:02:39;98623.09;;;5.29;73.78
21781;BME280;52576;53.614;9.894;2023-01-16T11:04:43;98610.81;;;5.31;73.75
21781;BME280;52576;53.614;9.894;2023-01-16T11:06:47;98607.16;;;5.33;73.42
21781;BME280;52576;53.614;9.894;2023-01-16T11:08:53;98605.38;;;5.34;73.21
21781;BME280;52576;53.614;9.894;2023-01-16T11:10:57;98588.72;;;5.36;73.18
21781;BME280;52576;53.614;9.894;2023-01-16T11:13:00;98584.38;;;5.37;73.10
21781;BME280;52576;53.614;9.894;2023-01-16T11:15:22;98570.44;;;5.38;73.26
21781;BME280;52576;53.614;9.894;2023-01-16T11:17:51;98571.00;;;5.41;72.95
21781;BME280;52576;53.614;9.894;2023-01-16T11:20:16;98559.78;;;5.41;72.89
21781;BME280;52576;53.614;9.894;2023-01-16T11:22:23;98551.06;;;5.42;72.64
21781;BME280;52576;53.614;9.894;2023-01-16T11:24:30;98546.94;;;5.39;72.66